Time;durP1;ratioP1;P1;durP2;ratioP2;P2;SDS_P1;SDS_P2;PMS_P1;PMS_P2;Temp;Humidity;BMP_temperature;BMP_pressure;BME280_temperature;BME280_humidity;BME280_pressure;Samples;Min_cycle;Max_cycle;Signal;HPM_P1;HPM_P2
2022/12/21 00:01:24;;;;;;;;;;;;;;;28.49;43.39;97924.67;602139;235;65059;-71
2022/12/21 00:03:53;;;;;;;;;;;;;;;28.47;44.08;97911.44;602088;235;67187;-70
2022/12/21 00:06:21;;;;;;;;;;;;;;;28.46;43.47;97904.44;602101;235;63670;-70
2022/12/21 00:08:49;;;;;;;;;;;;;;;28.46;44.01;97899.03;602080;235;64866;-68
2022/12/21 00:11:17;;;;;;;;;;;;;;;28.46;44.72;97896.33;602086;235;64809;-67
2022/12/21 00:13:45;;;;;;;;;;;;;;;28.46;43.94;97901.73;602050;235;62935;-70
2022/12/21 00:16:13;;;;;;;;;;;;;;;28.46;42.80;97899.03;602071;235;65256;-71
2022/12/21 00:18:42;;;;;;;;;;;;;;;28.46;44.21;97895.53;602095;235;66887;-71
2022/12/21 00:21:10;;;;;;;;;;;;;;;28.46;44.51;97904.44;602079;235;65292;-71
2022/12/21 00:23:38;;;;;;;;;;;;;;;28.45;43.88;97902.02;602094;235;67116;-71
2022/12/21 00:26:07;;;;;;;;;;;;;;;28.45;44.21;97891.20;602081;235;66881;-70
2022/12/21 00:28:35;;;;;;;;;;;;;;;28.44;44.39;97879.59;602099;234;62588;-71
2022/12/21 00:31:09;;;;;;;;;;;;;;;28.43;43.62;97894.22;602097;235;65186;-71
2022/12/21 00:33:37;;;;;;;;;;;;;;;28.43;43.57;97888.81;602110;235;67013;-71
2022/12/21 00:36:06;;;;;;;;;;;;;;;28.44;44.53;97886.91;602077;235;65088;-71
2022/12/21 00:38:34;;;;;;;;;;;;;;;28.42;43.47;97897.97;602050;235;67213;-71
2022/12/21 00:41:03;;;;;;;;;;;;;;;28.42;44.32;97887.16;602134;235;67182;-71
2022/12/21 00:43:31;;;;;;;;;;;;;;;28.42;43.53;97886.36;602091;235;62977;-71
2022/12/21 00:46:00;;;;;;;;;;;;;;;28.42;44.12;97883.66;602081;235;67400;-71
2022/12/21 00:48:28;;;;;;;;;;;;;;;28.41;43.60;97880.16;602061;235;64976;-71
2022/12/21 00:50:57;;;;;;;;;;;;;;;28.41;43.09;97874.76;602036;235;62709;-71
2022/12/21 00:53:24;;;;;;;;;;;;;;;28.41;43.89;97872.05;601907;235;64560;-72
2022/12/21 00:55:53;;;;;;;;;;;;;;;28.40;44.36;97883.98;602192;235;66809;-71
2022/12/21 00:58:21;;;;;;;;;;;;;;;28.39;44.26;97882.36;602122;235;65186;-71
2022/12/21 01:00:48;;;;;;;;;;;;;;;28.38;44.59;97875.36;602104;235;67167;-73
2022/12/21 01:03:16;;;;;;;;;;;;;;;28.37;44.26;97879.14;602092;235;67151;-71
2022/12/21 01:05:45;;;;;;;;;;;;;;;28.38;43.78;97869.16;602066;235;63086;-71
2022/12/21 01:08:13;;;;;;;;;;;;;;;28.37;43.54;97881.84;601939;235;67303;-71
2022/12/21 01:10:41;;;;;;;;;;;;;;;28.37;43.61;97883.75;602127;235;67069;-71
2022/12/21 01:13:08;;;;;;;;;;;;;;;28.37;44.43;97879.14;602104;235;62759;-71
2022/12/21 01:15:37;;;;;;;;;;;;;;;28.36;44.45;97871.34;602113;235;65011;-71
2022/12/21 01:18:04;;;;;;;;;;;;;;;28.35;43.40;97878.66;602054;235;64829;-68
2022/12/21 01:20:32;;;;;;;;;;;;;;;28.33;43.94;97876.24;602151;235;64796;-68
2022/12/21 01:22:59;;;;;;;;;;;;;;;28.34;43.57;97875.13;602100;235;64500;-68
2022/12/21 01:25:27;;;;;;;;;;;;;;;28.33;43.63;97878.16;602100;235;65789;-68
2022/12/21 01:27:54;;;;;;;;;;;;;;;28.33;43.95;97883.56;602055;234;64933;-68
2022/12/21 01:30:22;;;;;;;;;;;;;;;28.31;43.77;97866.83;602101;235;67421;-68
2022/12/21 01:32:49;;;;;;;;;;;;;;;28.30;44.42;97867.94;602121;235;66888;-68
2022/12/21 01:35:18;;;;;;;;;;;;;;;28.30;43.57;97870.64;602105;235;62616;-71
2022/12/21 01:37:46;;;;;;;;;;;;;;;28.29;44.47;97866.31;602109;235;64983;-71
2022/12/21 01:40:13;;;;;;;;;;;;;;;28.28;43.43;97867.42;602092;235;65760;-72
2022/12/21 01:42:41;;;;;;;;;;;;;;;28.28;45.75;97859.32;602130;235;64636;-71
2022/12/21 01:45:20;;;;;;;;;;;;;;;28.26;42.94;97856.11;602120;235;63967;-72
2022/12/21 01:47:52;;;;;;;;;;;;;;;28.25;44.37;97846.41;602160;235;64418;-71
2022/12/21 01:50:21;;;;;;;;;;;;;;;28.25;44.53;97841.00;602121;235;63735;-72
2022/12/21 01:52:49;;;;;;;;;;;;;;;28.24;43.93;97848.31;602117;235;64713;-71
2022/12/21 01:55:16;;;;;;;;;;;;;;;28.23;43.92;97846.69;602113;235;64720;-71
2022/12/21 01:57:46;;;;;;;;;;;;;;;28.22;43.14;97847.01;602132;235;43425;-71
2022/12/21 02:00:14;;;;;;;;;;;;;;;28.22;44.36;97860.52;602177;235;67236;-71
2022/12/21 02:02:42;;;;;;;;;;;;;;;28.20;44.71;97849.20;602124;235;66593;-71
2022/12/21 02:05:11;;;;;;;;;;;;;;;28.19;43.59;97850.31;602022;235;64900;-71
2022/12/21 02:07:40;;;;;;;;;;;;;;;28.18;43.22;97848.69;602012;235;64558;-68
2022/12/21 02:10:08;;;;;;;;;;;;;;;28.18;45.46;97851.39;602101;235;66587;-68
2022/12/21 02:12:36;;;;;;;;;;;;;;;28.17;44.27;97855.20;602109;235;65101;-72
2022/12/21 02:15:05;;;;;;;;;;;;;;;28.16;44.70;97859.02;602119;235;65143;-72
2022/12/21 02:17:42;;;;;;;;;;;;;;;28.13;46.56;97851.48;602087;235;65191;-72
2022/12/21 02:20:27;;;;;;;;;;;;;;;28.12;43.52;97845.28;601841;235;64902;-72
2022/12/21 02:22:59;;;;;;;;;;;;;;;28.11;45.49;97840.98;602092;235;67097;-71
2022/12/21 02:25:34;;;;;;;;;;;;;;;28.10;43.84;97845.59;602102;235;66902;-71
2022/12/21 02:28:03;;;;;;;;;;;;;;;28.08;45.95;97836.17;602064;234;62772;-72
2022/12/21 02:30:48;;;;;;;;;;;;;;;28.07;43.82;97835.38;602149;235;67112;-72
2022/12/21 02:33:17;;;;;;;;;;;;;;;28.06;44.60;97825.66;602100;235;65706;-71
2022/12/21 02:35:46;;;;;;;;;;;;;;;28.04;46.03;97811.63;600367;235;62924;-72
2022/12/21 02:38:29;;;;;;;;;;;;;;;28.03;43.13;97811.95;602122;235;66820;-72
2022/12/21 02:40:58;;;;;;;;;;;;;;;28.03;44.24;97815.44;602107;235;67150;-68
2022/12/21 02:46:36;;;;;;;;;;;;;;;28.00;45.03;97797.13;602116;235;67371;-67
2022/12/21 02:49:05;;;;;;;;;;;;;;;27.98;46.60;97799.32;601966;234;65064;-67
2022/12/21 02:51:34;;;;;;;;;;;;;;;27.97;45.83;97799.64;602142;235;65071;-67
2022/12/21 02:54:02;;;;;;;;;;;;;;;27.96;46.71;97792.61;601994;235;67551;-72
2022/12/21 02:56:30;;;;;;;;;;;;;;;27.94;47.17;97792.92;602114;235;67127;-71
2022/12/21 02:58:58;;;;;;;;;;;;;;;27.93;47.77;97787.81;602080;235;65066;-68
2022/12/21 03:01:36;;;;;;;;;;;;;;;27.92;48.12;97778.91;602137;235;64882;-67
2022/12/21 03:04:05;;;;;;;;;;;;;;;27.90;46.65;97775.70;602166;235;64529;-67
2022/12/21 03:06:41;;;;;;;;;;;;;;;27.90;47.53;97773.00;601745;235;65409;-67
2022/12/21 03:09:17;;;;;;;;;;;;;;;27.90;46.82;97773.00;602055;235;67590;-67
2022/12/21 03:11:46;;;;;;;;;;;;;;;27.88;45.44;97772.48;601875;235;65078;-67
2022/12/21 03:14:17;;;;;;;;;;;;;;;27.87;45.81;97768.19;601972;235;63758;-67
2022/12/21 03:16:55;;;;;;;;;;;;;;;27.86;46.08;97766.60;601930;235;66824;-67
2022/12/21 03:19:30;;;;;;;;;;;;;;;27.84;47.80;97772.29;602055;235;67660;-67
2022/12/21 03:22:06;;;;;;;;;;;;;;;27.82;45.38;97773.69;602036;235;64898;-67
2022/12/21 03:24:35;;;;;;;;;;;;;;;27.80;46.07;97776.70;601826;235;65057;-67
2022/12/21 03:27:17;;;;;;;;;;;;;;;27.80;47.10;97774.00;602064;235;66914;-67
2022/12/21 03:29:47;;;;;;;;;;;;;;;27.80;47.95;97778.58;603597;235;65084;-67
2022/12/21 03:32:16;;;;;;;;;;;;;;;27.79;46.69;97779.66;603474;235;64925;-67
2022/12/21 03:34:45;;;;;;;;;;;;;;;27.77;46.62;97776.44;603661;235;65280;-67
2022/12/21 03:37:14;;;;;;;;;;;;;;;27.76;47.18;97772.15;603697;235;62927;-67
2022/12/21 03:39:43;;;;;;;;;;;;;;;27.76;45.63;97777.55;603409;235;65936;-67
2022/12/21 03:42:15;;;;;;;;;;;;;;;27.74;44.26;97780.53;603706;235;67058;-67
2022/12/21 03:44:44;;;;;;;;;;;;;;;27.73;46.33;97775.45;603569;235;65074;-67
2022/12/21 03:47:13;;;;;;;;;;;;;;;27.73;46.43;97780.84;603362;235;67268;-67
2022/12/21 03:49:42;;;;;;;;;;;;;;;27.70;47.32;97784.14;603371;235;67118;-67
2022/12/21 03:52:11;;;;;;;;;;;;;;;27.67;46.91;97770.13;603612;235;63039;-67
2022/12/21 03:54:46;;;;;;;;;;;;;;;27.68;47.21;97765.52;603680;235;67006;-67
2022/12/21 03:57:14;;;;;;;;;;;;;;;27.66;48.12;97768.54;603526;235;67104;-67
2022/12/21 03:59:43;;;;;;;;;;;;;;;27.66;47.83;97768.54;603640;235;65714;-67
2022/12/21 04:02:18;;;;;;;;;;;;;;;27.65;46.35;97753.42;603745;235;67486;-67
2022/12/21 04:04:47;;;;;;;;;;;;;;;27.63;46.89;97758.30;603513;235;64878;-67
2022/12/21 04:07:16;;;;;;;;;;;;;;;27.63;47.07;97761.00;603451;235;62972;-67
2022/12/21 04:09:44;;;;;;;;;;;;;;;27.60;44.63;97756.20;603703;235;67242;-67
2022/12/21 04:14:58;;;;;;;;;;;;;;;27.60;48.33;97748.09;603711;235;64958;-67
2022/12/21 04:17:25;;;;;;;;;;;;;;;27.59;47.83;97734.91;603732;235;65968;-67
2022/12/21 04:19:59;;;;;;;;;;;;;;;27.57;46.40;97743.30;603697;235;67021;-67
2022/12/21 04:28:07;;;;;;;;;;;;;;;27.54;47.22;97733.09;603336;234;65702;-72
2022/12/21 04:30:36;;;;;;;;;;;;;;;27.53;46.65;97727.98;602122;235;65225;-72
2022/12/21 04:33:04;;;;;;;;;;;;;;;27.51;48.54;97727.50;602120;235;64884;-72
2022/12/21 04:35:32;;;;;;;;;;;;;;;27.49;48.10;97719.68;602138;235;66895;-72
2022/12/21 04:37:59;;;;;;;;;;;;;;;27.47;48.43;97715.67;602121;235;62883;-72
2022/12/21 04:40:27;;;;;;;;;;;;;;;27.46;47.44;97706.78;602088;235;65015;-67
2022/12/21 04:42:54;;;;;;;;;;;;;;;27.45;45.76;97702.49;602155;235;64757;-67
2022/12/21 04:45:22;;;;;;;;;;;;;;;27.44;46.33;97703.57;602098;235;62937;-67
2022/12/21 04:47:51;;;;;;;;;;;;;;;27.42;45.89;97701.19;602180;235;65115;-67
2022/12/21 04:50:19;;;;;;;;;;;;;;;27.42;48.35;97694.98;602027;235;67208;-67
2022/12/21 04:52:46;;;;;;;;;;;;;;;27.42;47.55;97695.78;602083;235;63664;-67
2022/12/21 04:55:13;;;;;;;;;;;;;;;27.40;47.01;97689.88;602112;235;67045;-67
2022/12/21 04:57:41;;;;;;;;;;;;;;;27.39;46.97;97685.59;602116;235;66931;-67
2022/12/21 05:00:09;;;;;;;;;;;;;;;27.38;46.74;97678.56;602147;235;62670;-68
2022/12/21 05:02:37;;;;;;;;;;;;;;;27.38;48.51;97677.77;602102;235;67116;-67
2022/12/21 05:05:04;;;;;;;;;;;;;;;27.36;46.60;97682.66;602106;235;64670;-67
2022/12/21 05:07:32;;;;;;;;;;;;;;;27.35;47.99;97673.77;602097;235;62779;-67
2022/12/21 05:09:59;;;;;;;;;;;;;;;27.35;47.67;97670.27;602113;235;64583;-67
2022/12/21 05:12:27;;;;;;;;;;;;;;;27.33;47.68;97669.77;602110;235;64850;-67
2022/12/21 05:14:54;;;;;;;;;;;;;;;27.31;47.30;97663.85;602129;235;62818;-67
2022/12/21 05:17:24;;;;;;;;;;;;;;;27.30;49.23;97654.16;601965;235;47295;-67
2022/12/21 05:19:51;;;;;;;;;;;;;;;27.29;45.19;97647.18;602052;235;66872;-67
2022/12/21 05:22:19;;;;;;;;;;;;;;;27.29;48.33;97647.18;602110;235;64891;-67
2022/12/21 05:24:46;;;;;;;;;;;;;;;27.28;48.63;97651.75;602088;235;66967;-68
2022/12/21 05:27:14;;;;;;;;;;;;;;;27.27;46.11;97642.06;602151;235;66945;-67
2022/12/21 05:29:41;;;;;;;;;;;;;;;27.25;47.80;97633.46;602052;234;63640;-67
2022/12/21 05:32:09;;;;;;;;;;;;;;;27.24;48.32;97639.96;602132;235;64956;-67
2022/12/21 05:34:37;;;;;;;;;;;;;;;27.22;47.97;97640.25;602098;235;64899;-72
2022/12/21 05:37:23;;;;;;;;;;;;;;;27.22;46.53;97626.75;602090;235;65007;-72
2022/12/21 05:39:48;;;;;;;;;;;;;;;27.20;45.65;97628.97;601080;235;67192;-71
2022/12/21 05:42:16;;;;;;;;;;;;;;;27.20;46.04;97625.45;602172;235;65947;-70
2022/12/21 05:44:44;;;;;;;;;;;;;;;27.19;47.02;97624.66;602013;235;63080;-70
2022/12/21 05:47:11;;;;;;;;;;;;;;;27.18;45.58;97620.37;601960;235;67262;-71
2022/12/21 05:49:38;;;;;;;;;;;;;;;27.16;49.04;97619.86;602093;235;66969;-71
2022/12/21 05:52:06;;;;;;;;;;;;;;;27.15;45.74;97615.54;602147;235;65123;-71
2022/12/21 05:54:33;;;;;;;;;;;;;;;27.15;47.54;97615.54;602041;235;67287;-70
2022/12/21 05:57:01;;;;;;;;;;;;;;;27.14;47.27;97616.61;602166;235;66384;-71
2022/12/21 05:59:28;;;;;;;;;;;;;;;27.13;45.18;97619.62;602089;235;62789;-70
2022/12/21 06:01:56;;;;;;;;;;;;;;;27.12;47.88;97629.63;602105;235;64753;-70
2022/12/21 06:04:23;;;;;;;;;;;;;;;27.12;49.22;97628.80;602160;235;65216;-70
2022/12/21 06:06:51;;;;;;;;;;;;;;;27.10;46.55;97629.11;602115;235;62930;-73
2022/12/21 06:09:18;;;;;;;;;;;;;;;27.09;48.02;97630.22;602119;235;66795;-73
2022/12/21 06:11:45;;;;;;;;;;;;;;;27.08;46.77;97625.90;602111;235;66785;-73
2022/12/21 06:14:13;;;;;;;;;;;;;;;27.07;46.29;97624.31;602143;235;64836;-73
2022/12/21 06:16:41;;;;;;;;;;;;;;;27.06;47.57;97621.90;602054;235;65406;-71
2022/12/21 06:19:08;;;;;;;;;;;;;;;27.07;46.69;97627.01;602146;235;64828;-73
2022/12/21 06:21:36;;;;;;;;;;;;;;;27.08;48.37;97625.90;602135;235;65057;-73
2022/12/21 06:24:04;;;;;;;;;;;;;;;27.06;47.48;97625.39;602104;235;66965;-70
2022/12/21 06:26:32;;;;;;;;;;;;;;;27.05;47.12;97626.50;602056;235;67147;-73
2022/12/21 06:28:59;;;;;;;;;;;;;;;27.05;47.26;97623.00;603072;234;65112;-70
2022/12/21 06:31:27;;;;;;;;;;;;;;;27.05;50.35;97614.91;603702;235;65139;-70
2022/12/21 06:33:55;;;;;;;;;;;;;;;27.04;48.08;97619.52;603514;235;67082;-73
2022/12/21 06:36:22;;;;;;;;;;;;;;;27.04;47.90;97616.81;603460;235;65216;-67
2022/12/21 06:38:50;;;;;;;;;;;;;;;27.04;45.76;97615.99;603690;235;67280;-67
2022/12/21 06:41:19;;;;;;;;;;;;;;;27.04;47.40;97619.52;602599;235;66779;-66
2022/12/21 06:43:46;;;;;;;;;;;;;;;27.04;47.37;97615.99;603725;235;65157;-66
2022/12/21 06:46:15;;;;;;;;;;;;;;;27.02;49.43;97613.61;603298;235;65027;-66
2022/12/21 06:48:43;;;;;;;;;;;;;;;27.03;49.13;97615.20;603448;235;67154;-66
2022/12/21 06:51:12;;;;;;;;;;;;;;;27.03;48.59;97619.80;603675;235;65416;-66
2022/12/21 06:53:41;;;;;;;;;;;;;;;27.01;47.14;97615.51;603328;235;67271;-67
2022/12/21 06:56:12;;;;;;;;;;;;;;;27.00;48.16;97632.77;603701;235;67053;-68
2022/12/21 06:58:39;;;;;;;;;;;;;;;27.00;46.06;97630.08;603065;235;65064;-67
2022/12/21 07:01:08;;;;;;;;;;;;;;;27.00;48.44;97631.98;602472;232;67150;-67
2022/12/21 07:03:35;;;;;;;;;;;;;;;27.00;46.98;97637.38;602211;235;66963;-67
2022/12/21 07:06:03;;;;;;;;;;;;;;;26.98;48.01;97639.55;601812;235;64971;-67
2022/12/21 07:08:31;;;;;;;;;;;;;;;26.98;46.11;97647.64;601990;235;68539;-67
2022/12/21 07:10:59;;;;;;;;;;;;;;;26.99;46.02;97641.17;602215;235;66814;-67
2022/12/21 07:13:28;;;;;;;;;;;;;;;26.98;46.81;97636.86;602126;235;65048;-67
2022/12/21 07:15:57;;;;;;;;;;;;;;;26.98;47.00;97631.46;602199;235;67273;-68
2022/12/21 07:18:24;;;;;;;;;;;;;;;27.00;48.17;97632.77;602128;235;65473;-69
2022/12/21 07:20:59;;;;;;;;;;;;;;;26.99;47.29;97633.88;602100;235;63101;-68
2022/12/21 07:23:26;;;;;;;;;;;;;;;26.96;46.27;97634.47;602245;235;64933;-68
2022/12/21 07:25:54;;;;;;;;;;;;;;;26.93;46.60;97631.58;602055;235;67034;-67
2022/12/21 07:28:21;;;;;;;;;;;;;;;26.92;47.11;97638.05;602060;235;66591;-67
2022/12/21 07:30:49;;;;;;;;;;;;;;;26.90;43.11;97635.66;602177;235;67253;-68
2022/12/21 07:33:17;;;;;;;;;;;;;;;26.89;47.68;97633.24;602119;235;67122;-66
2022/12/21 07:35:45;;;;;;;;;;;;;;;26.88;44.86;97639.74;604625;232;65030;-68
2022/12/21 07:38:12;;;;;;;;;;;;;;;26.88;44.01;97631.66;606895;232;67014;-68
2022/12/21 07:40:40;;;;;;;;;;;;;;;26.87;44.52;97638.91;603205;235;67025;-68
2022/12/21 07:43:10;;;;;;;;;;;;;;;26.89;45.65;97639.43;603220;235;64904;-71
2022/12/21 07:45:46;;;;;;;;;;;;;;;26.91;47.73;97636.45;603217;234;46097;-68
2022/12/21 07:48:15;;;;;;;;;;;;;;;26.92;46.60;97629.95;603210;234;50070;-67
2022/12/21 07:50:42;;;;;;;;;;;;;;;26.95;45.48;97624.76;603298;235;63021;-66
2022/12/21 07:53:10;;;;;;;;;;;;;;;26.99;46.70;97611.50;603242;235;64876;-67
2022/12/21 07:55:37;;;;;;;;;;;;;;;27.02;45.31;97594.72;597690;235;64253;-68
2022/12/21 07:58:05;;;;;;;;;;;;;;;27.05;45.31;97591.43;600271;235;64908;-68
2022/12/21 08:00:34;;;;;;;;;;;;;;;27.08;44.72;97590.83;600390;235;65116;-67
2022/12/21 08:03:07;;;;;;;;;;;;;;;27.12;45.86;97585.63;603064;235;67082;-68
2022/12/21 08:05:40;;;;;;;;;;;;;;;27.13;44.93;97581.86;603017;235;65092;-69
2022/12/21 08:08:07;;;;;;;;;;;;;;;27.16;44.29;97589.35;603250;235;67167;-69
2022/12/21 08:10:43;;;;;;;;;;;;;;;27.19;44.61;97588.78;603220;232;47838;-69
2022/12/21 08:13:10;;;;;;;;;;;;;;;27.21;45.40;97589.30;603217;234;64889;-69
2022/12/21 08:15:38;;;;;;;;;;;;;;;27.24;43.73;97594.09;603273;235;66864;-68
2022/12/21 08:18:05;;;;;;;;;;;;;;;27.26;45.08;97591.11;603259;235;67733;-69
2022/12/21 08:20:35;;;;;;;;;;;;;;;27.29;45.94;97583.20;603314;234;49705;-69
2022/12/21 08:23:02;;;;;;;;;;;;;;;27.31;45.10;97581.02;603166;235;66998;-69
2022/12/21 08:25:30;;;;;;;;;;;;;;;27.34;46.14;97569.63;608693;232;64460;-68
2022/12/21 08:27:57;;;;;;;;;;;;;;;27.37;45.15;97574.42;610034;232;65072;-69
2022/12/21 08:30:25;;;;;;;;;;;;;;;27.39;46.20;97569.53;608775;233;67037;-68
2022/12/21 08:32:52;;;;;;;;;;;;;;;27.42;44.08;97568.13;608687;233;68171;-69
2022/12/21 08:35:22;;;;;;;;;;;;;;;27.45;42.96;97562.13;608612;231;44625;-68
2022/12/21 08:37:51;;;;;;;;;;;;;;;27.48;44.38;97561.52;608700;233;67101;-71
2022/12/21 08:40:19;;;;;;;;;;;;;;;27.50;45.49;97559.33;608760;233;66843;-70
2022/12/21 08:42:47;;;;;;;;;;;;;;;27.54;45.24;97543.33;608782;233;63623;-69
2022/12/21 08:45:14;;;;;;;;;;;;;;;27.55;45.92;97547.61;608754;233;67188;-68
2022/12/21 08:47:43;;;;;;;;;;;;;;;27.57;45.50;97543.52;608744;233;67091;-68
2022/12/21 08:50:11;;;;;;;;;;;;;;;27.58;45.97;97537.03;608732;233;62942;-70
2022/12/21 08:52:39;;;;;;;;;;;;;;;27.61;44.21;97544.52;608677;233;65569;-68
2022/12/21 08:55:09;;;;;;;;;;;;;;;27.64;45.17;97543.92;608771;233;66887;-70
2022/12/21 08:57:36;;;;;;;;;;;;;;;27.65;43.85;97540.10;608765;233;64894;-70
2022/12/21 09:00:09;;;;;;;;;;;;;;;27.66;45.47;97536.32;608709;233;66169;-69
2022/12/21 09:02:33;;;;;;;;;;;;;;;27.68;45.14;97539.50;608625;232;66782;-71
2022/12/21 09:05:01;;;;;;;;;;;;;;;27.70;45.12;97541.11;608753;233;66131;-71
2022/12/21 09:07:28;;;;;;;;;;;;;;;27.72;46.21;97528.09;608691;233;66948;-70
2022/12/21 09:09:56;;;;;;;;;;;;;;;27.75;45.54;97527.51;608831;233;67777;-70
2022/12/21 09:12:24;;;;;;;;;;;;;;;27.75;43.95;97522.90;603710;233;66219;-70
2022/12/21 09:14:51;;;;;;;;;;;;;;;27.77;44.54;97517.18;608693;233;67092;-71
2022/12/21 09:17:18;;;;;;;;;;;;;;;27.78;44.60;97510.70;608740;233;64827;-69
2022/12/21 09:19:46;;;;;;;;;;;;;;;27.79;44.77;97510.38;608780;233;62806;-73
2022/12/21 09:22:13;;;;;;;;;;;;;;;27.82;44.57;97503.59;608448;233;64852;-68
2022/12/21 09:24:41;;;;;;;;;;;;;;;27.84;43.86;97498.70;605013;234;67196;-67
2022/12/21 09:27:08;;;;;;;;;;;;;;;27.85;45.16;97492.19;606555;232;63116;-70
2022/12/21 09:29:36;;;;;;;;;;;;;;;27.85;45.03;97489.48;609195;232;67151;-70
2022/12/21 09:32:03;;;;;;;;;;;;;;;27.83;42.23;97484.41;610724;232;66851;-70
2022/12/21 09:34:31;;;;;;;;;;;;;;;27.81;43.35;97478.50;610434;232;62674;-70
2022/12/21 09:36:59;;;;;;;;;;;;;;;27.81;43.75;97462.30;609592;232;64900;-70
2022/12/21 09:39:26;;;;;;;;;;;;;;;27.82;43.53;97457.69;611778;232;66655;-70
2022/12/21 09:41:55;;;;;;;;;;;;;;;27.81;43.90;97453.40;610407;232;64859;-70
2022/12/21 09:44:34;;;;;;;;;;;;;;;27.81;43.22;97454.19;607962;233;67101;-70
2022/12/21 09:47:03;;;;;;;;;;;;;;;27.82;43.60;97447.67;610002;232;67318;-72
2022/12/21 09:49:38;;;;;;;;;;;;;;;27.83;44.19;97443.89;609181;232;66428;-73
2022/12/21 09:52:07;;;;;;;;;;;;;;;27.82;43.73;97447.67;611194;232;64902;-70
2022/12/21 09:54:39;;;;;;;;;;;;;;;27.81;42.98;97437.20;610279;232;66980;-73
2022/12/21 09:57:07;;;;;;;;;;;;;;;27.81;42.77;97434.50;609677;232;64871;-70
2022/12/21 09:59:35;;;;;;;;;;;;;;;27.84;40.97;97439.28;611562;232;67231;-73
2022/12/21 10:02:19;;;;;;;;;;;;;;;27.84;43.35;97431.97;612050;232;66724;-73
2022/12/21 10:05:04;;;;;;;;;;;;;;;27.85;40.63;97427.36;610520;232;62791;-71
2022/12/21 10:07:51;;;;;;;;;;;;;;;27.89;41.15;97425.66;609916;232;66739;-74
2022/12/21 10:10:23;;;;;;;;;;;;;;;27.88;43.60;97421.34;609832;232;66743;-71
2022/12/21 10:13:09;;;;;;;;;;;;;;;27.87;42.93;97419.76;611421;232;63230;-71
2022/12/21 10:15:50;;;;;;;;;;;;;;;27.88;42.18;97424.05;609954;232;64983;-68
2022/12/21 10:18:22;;;;;;;;;;;;;;;27.89;42.50;97420.26;599006;232;66705;-71
2022/12/21 10:21:09;;;;;;;;;;;;;;;27.90;42.37;97419.14;608607;231;63018;-70
2022/12/21 10:23:39;;;;;;;;;;;;;;;27.91;40.94;97411.83;610706;231;64627;-72
2022/12/21 10:26:08;;;;;;;;;;;;;;;27.93;43.87;97405.02;609048;231;66731;-71
2022/12/21 10:28:37;;;;;;;;;;;;;;;27.89;40.78;97399.44;611376;231;65053;-68
2022/12/21 10:31:06;;;;;;;;;;;;;;;27.93;42.91;97396.92;610462;232;67250;-68
2022/12/21 10:33:37;;;;;;;;;;;;;;;27.94;42.99;97393.13;611048;232;66905;-70
2022/12/21 10:36:06;;;;;;;;;;;;;;;27.95;43.14;97386.61;611111;232;64876;-68
2022/12/21 10:38:34;;;;;;;;;;;;;;;27.98;37.38;97377.89;611083;232;66976;-69
2022/12/21 10:41:03;;;;;;;;;;;;;;;28.05;37.62;97380.17;611189;232;64786;-70
2022/12/21 10:43:34;;;;;;;;;;;;;;;28.07;37.53;97376.06;611088;232;64984;-68
2022/12/21 10:46:01;;;;;;;;;;;;;;;28.11;37.14;97368.91;611058;232;67216;-68
2022/12/21 10:48:29;;;;;;;;;;;;;;;28.13;37.94;97370.50;611170;232;66931;-67
2022/12/21 10:50:58;;;;;;;;;;;;;;;28.15;39.00;97373.70;611122;232;65141;-68
2022/12/21 10:53:27;;;;;;;;;;;;;;;28.17;37.34;97372.28;611121;232;67345;-68
2022/12/21 10:55:56;;;;;;;;;;;;;;;28.18;38.85;97373.08;611187;232;66853;-69
2022/12/21 10:58:25;;;;;;;;;;;;;;;28.19;38.63;97359.27;611130;232;65120;-67
2022/12/21 11:00:56;;;;;;;;;;;;;;;28.20;39.20;97358.15;611135;232;64835;-66
2022/12/21 11:03:25;;;;;;;;;;;;;;;28.22;42.49;97360.55;611119;232;67466;-70
2022/12/21 11:05:52;;;;;;;;;;;;;;;28.22;41.00;97355.16;611200;232;63007;-67
2022/12/21 11:08:24;;;;;;;;;;;;;;;28.19;40.00;97359.27;611210;232;65019;-68
2022/12/21 11:10:53;;;;;;;;;;;;;;;28.18;43.71;97363.06;611093;232;64935;-71
2022/12/21 11:13:21;;;;;;;;;;;;;;;28.18;43.63;97359.56;611168;232;64904;-71
2022/12/21 11:15:53;;;;;;;;;;;;;;;28.17;43.31;97361.47;609792;232;67192;-69
2022/12/21 11:18:28;;;;;;;;;;;;;;;28.17;40.86;97360.69;610212;232;64800;-69
2022/12/21 11:20:56;;;;;;;;;;;;;;;28.16;39.22;97361.80;610420;232;64897;-68
2022/12/21 11:23:24;;;;;;;;;;;;;;;28.15;41.45;97355.58;604838;232;64149;-69
2022/12/21 11:25:54;;;;;;;;;;;;;;;28.14;43.36;97355.91;609478;232;65105;-69
2022/12/21 11:28:23;;;;;;;;;;;;;;;28.14;41.69;97353.20;610189;232;63103;-68
2022/12/21 11:30:54;;;;;;;;;;;;;;;28.14;41.06;97351.29;604835;232;68905;-68
2022/12/21 11:33:22;;;;;;;;;;;;;;;28.13;40.31;97343.48;609630;232;64863;-70
2022/12/21 11:36:07;;;;;;;;;;;;;;;28.16;38.79;97346.38;609994;232;64908;-68
2022/12/21 11:38:35;;;;;;;;;;;;;;;28.19;41.44;97347.67;610014;232;64605;-68
2022/12/21 11:41:04;;;;;;;;;;;;;;;28.19;39.18;97334.95;609941;232;66986;-68
2022/12/21 11:43:33;;;;;;;;;;;;;;;28.23;40.30;97343.22;609732;232;63037;-68
2022/12/21 11:46:08;;;;;;;;;;;;;;;28.25;39.69;97339.10;609730;232;65045;-68
2022/12/21 11:48:46;;;;;;;;;;;;;;;28.28;40.27;97334.98;610023;232;64879;-70
2022/12/21 11:51:16;;;;;;;;;;;;;;;28.28;40.42;97330.38;609793;232;63056;-70
2022/12/21 11:54:03;;;;;;;;;;;;;;;28.28;40.83;97329.58;609937;232;65003;-70
2022/12/21 11:56:38;;;;;;;;;;;;;;;28.27;40.74;97328.79;609993;232;66988;-73
2022/12/21 11:59:19;;;;;;;;;;;;;;;28.31;41.29;97328.95;609767;232;65149;-68
2022/12/21 12:01:54;;;;;;;;;;;;;;;28.31;41.47;97320.84;609828;232;64991;-66
2022/12/21 12:04:29;;;;;;;;;;;;;;;28.33;42.01;97318.63;609661;232;67157;-71
2022/12/21 12:07:01;;;;;;;;;;;;;;;28.31;41.59;97324.34;609732;232;62747;-70
2022/12/21 12:09:36;;;;;;;;;;;;;;;28.34;42.05;97314.81;609706;232;67146;-67
2022/12/21 12:12:21;;;;;;;;;;;;;;;28.36;42.05;97309.90;609683;232;64394;-70
2022/12/21 12:14:50;;;;;;;;;;;;;;;28.36;41.15;97307.20;609973;232;65085;-69
2022/12/21 12:17:19;;;;;;;;;;;;;;;28.33;41.52;97297.80;609951;232;67085;-67
2022/12/21 12:20:01;;;;;;;;;;;;;;;28.31;37.43;97302.72;609700;232;65175;-70
2022/12/21 12:22:35;;;;;;;;;;;;;;;28.35;41.89;97286.70;609827;232;43657;-69
2022/12/21 12:25:06;;;;;;;;;;;;;;;28.38;38.62;97290.68;610044;232;48810;-69
2022/12/21 12:27:39;;;;;;;;;;;;;;;28.37;42.56;97287.16;609867;232;67077;-69
2022/12/21 12:30:10;;;;;;;;;;;;;;;28.40;41.54;97278.45;609676;232;64882;-70
2022/12/21 12:32:46;;;;;;;;;;;;;;;28.39;35.99;97274.13;609940;232;67996;-69
2022/12/21 12:35:30;;;;;;;;;;;;;;;28.42;41.68;97267.30;609857;232;66953;-69
2022/12/21 12:38:02;;;;;;;;;;;;;;;28.44;41.63;97257.02;609556;232;65298;-69
2022/12/21 12:40:40;;;;;;;;;;;;;;;28.44;41.62;97257.80;609936;232;66964;-69
2022/12/21 12:43:12;;;;;;;;;;;;;;;28.46;42.20;97252.89;609530;232;66903;-69
2022/12/21 12:45:40;;;;;;;;;;;;;;;28.44;42.60;97243.50;609231;232;62797;-69
2022/12/21 12:48:26;;;;;;;;;;;;;;;28.46;41.20;97243.98;609684;232;65227;-69
2022/12/21 12:50:58;;;;;;;;;;;;;;;28.47;40.53;97245.56;609983;232;67039;-68
2022/12/21 12:53:30;;;;;;;;;;;;;;;28.50;40.96;97236.83;609956;232;65160;-69
2022/12/21 12:56:02;;;;;;;;;;;;;;;28.52;41.34;97242.72;609956;232;67239;-67
2022/12/21 12:58:31;;;;;;;;;;;;;;;28.46;39.20;97236.66;609743;232;66944;-68
2022/12/21 13:01:00;;;;;;;;;;;;;;;28.41;42.03;97236.78;609906;232;65072;-68
2022/12/21 13:03:29;;;;;;;;;;;;;;;28.35;41.85;97227.23;610010;232;67106;-70
2022/12/21 13:06:07;;;;;;;;;;;;;;;28.33;40.57;97224.04;609809;232;64591;-67
2022/12/21 13:08:38;;;;;;;;;;;;;;;28.30;41.45;97220.05;609603;232;62814;-67
2022/12/21 13:11:23;;;;;;;;;;;;;;;28.33;41.70;97218.63;609679;232;64997;-67
2022/12/21 13:13:55;;;;;;;;;;;;;;;28.32;41.73;97225.16;610077;232;66926;-66